Time;durP1;ratioP1;P1;durP2;ratioP2;P2;SDS_P1;SDS_P2;PMS_P1;PMS_P2;Temp;Humidity;BMP_temperature;BMP_pressure;BME280_temperature;BME280_humidity;BME280_pressure;Samples;Min_cycle;Max_cycle;Signal;HPM_P1;HPM_P2
2021/05/26 00:01:08;;;;;;;17.60;16.02;;;;;;;20.72;68.03;94523.76;828297;71;29713;-75
2021/05/26 00:16:20;;;;;;;16.30;14.80;;;;;;;20.67;68.18;94525.39;829038;71;32753;-77
2021/05/26 00:31:20;;;;;;;16.45;15.05;;;;;;;20.59;68.30;94528.47;834076;71;32742;-76
2021/05/26 00:46:09;;;;;;;16.45;14.80;;;;;;;20.55;68.40;94534.27;834133;71;29706;-74
2021/05/26 01:01:14;;;;;;;17.70;15.90;;;;;;;20.57;68.60;94537.34;833821;71;32859;-77
2021/05/26 01:16:15;;;;;;;16.62;15.23;;;;;;;20.64;68.46;94544.73;827512;71;33339;-76
2021/05/26 01:31:19;;;;;;;15.80;14.30;;;;;;;20.59;68.58;94548.47;827263;71;32830;-74
2021/05/26 01:46:08;;;;;;;16.60;14.87;;;;;;;20.57;68.58;94549.34;829556;71;30216;-78
2021/05/26 02:01:08;;;;;;;15.70;14.40;;;;;;;20.51;68.82;94550.17;829535;71;29696;-76
2021/05/26 02:16:09;;;;;;;16.37;15.00;;;;;;;20.43;69.13;94541.82;830043;71;30338;-75
2021/05/26 02:31:14;;;;;;;16.02;14.73;;;;;;;20.45;69.26;94542.81;827829;71;33211;-78
2021/05/26 02:46:09;;;;;;;14.55;13.32;;;;;;;20.40;69.17;94547.86;829071;71;30361;-76
2021/05/26 03:01:58;;;;;;;16.35;14.95;;;;;;;20.41;69.31;94568.05;829106;71;32770;-76
2021/05/26 03:16:12;;;;;;;15.93;14.35;;;;;;;20.41;69.51;94596.80;834697;71;29781;-78
2021/05/26 03:31:15;;;;;;;16.07;14.57;;;;;;;21.41;71.33;94619.97;828215;71;32733;-80
2021/05/26 03:46:08;;;;;;;15.87;14.37;;;;;;;22.70;65.36;94638.13;828276;71;29684;-77
2021/05/26 04:01:08;;;;;;;17.17;15.70;;;;;;;23.06;62.59;94659.28;834417;71;29767;-80
2021/05/26 04:16:12;;;;;;;18.30;16.70;;;;;;;23.18;61.82;94666.50;828524;71;32512;-80
2021/05/26 04:31:29;;;;;;;18.87;16.90;;;;;;;23.19;61.14;94666.72;834290;71;33172;-81
2021/05/26 04:46:11;;;;;;;14.90;13.50;;;;;;;21.85;62.04;94685.09;826781;71;31469;-76
2021/05/26 05:01:16;;;;;;;14.90;13.37;;;;;;;20.45;64.25;94708.08;827424;71;33248;-75
2021/05/26 05:16:09;;;;;;;14.58;12.98;;;;;;;19.85;66.43;94706.79;830920;70;30723;-77
2021/05/26 05:31:09;;;;;;;13.38;11.97;;;;;;;19.53;66.41;94694.73;828275;71;30241;-76
2021/05/26 05:46:12;;;;;;;12.68;11.48;;;;;;;19.56;66.47;94711.34;822954;71;32098;-75
2021/05/26 06:01:10;;;;;;;11.30;10.13;;;;;;;19.56;64.02;94716.66;828611;71;31575;-75
2021/05/26 06:16:09;;;;;;;11.25;10.13;;;;;;;19.26;64.21;94728.18;834060;71;30385;-74
2021/05/26 06:31:15;;;;;;;12.10;9.43;;;;;;;18.93;64.42;94733.13;827433;71;32749;-75
2021/05/26 06:46:08;;;;;;;9.60;7.33;;;;;;;18.86;64.51;94727.61;794121;74;29891;-76
2021/05/26 07:01:12;;;;;;;8.35;7.55;;;;;;;19.49;63.13;94713.26;828214;71;32504;-76
2021/05/26 07:16:09;;;;;;;8.90;8.00;;;;;;;19.64;61.81;94710.41;825079;71;30719;-74
2021/05/26 07:31:12;;;;;;;9.00;8.10;;;;;;;19.72;61.22;94702.86;829161;71;32001;-76
2021/05/26 07:46:11;;;;;;;8.60;7.70;;;;;;;19.78;61.00;94702.06;828609;71;30285;-77
2021/05/26 08:01:10;;;;;;;7.17;6.58;;;;;;;19.96;60.44;94696.63;827980;71;29892;-77
2021/05/26 08:16:14;;;;;;;9.08;8.23;;;;;;;20.33;59.77;94682.29;814696;71;31846;-76
2021/05/26 08:31:19;;;;;;;9.10;8.20;;;;;;;21.03;58.53;94674.92;826727;71;32231;-76
2021/05/26 08:46:10;;;;;;;7.47;6.33;;;;;;;21.83;56.59;94670.55;828397;71;29181;-75
2021/05/26 09:01:57;;;;;;;8.10;7.40;;;;;;;22.46;55.38;94661.28;834105;71;31065;-76
2021/05/26 09:16:28;;;;;;;9.30;8.20;;;;;;;23.29;53.94;94658.59;831393;71;31822;-75
2021/05/26 09:31:13;;;;;;;8.67;7.90;;;;;;;23.94;52.40;94639.95;810207;71;29407;-77
2021/05/26 09:46:26;;;;;;;138.43;79.83;;;;;;;24.30;51.75;94623.40;820794;71;28714;-77
2021/05/26 10:01:14;;;;;;;32.00;23.10;;;;;;;25.13;50.65;94608.54;834094;71;31689;-76
2021/05/26 10:16:19;;;;;;;10.43;9.43;;;;;;;25.21;50.19;94589.20;827541;71;31708;-77
2021/05/26 10:31:10;;;;;;;12.00;10.90;;;;;;;25.66;49.39;94566.86;829526;71;28754;-76
2021/05/26 10:46:18;;;;;;;11.10;10.17;;;;;;;26.10;48.76;94546.91;827570;71;31819;-76
2021/05/26 11:01:08;;;;;;;11.87;10.77;;;;;;;;;;834124;71;28673;-75
2021/05/26 11:16:13;;;;;;;11.60;10.27;;;;;;;27.26;46.64;94491.53;828418;71;31731;-76
2021/05/26 11:31:11;;;;;;;11.67;10.57;;;;;;;27.77;45.30;94476.50;828238;71;29292;-74
2021/05/26 11:46:17;;;;;;;11.20;10.27;;;;;;;28.31;45.43;94433.59;833908;71;31775;-80
2021/05/26 12:01:16;;;;;;;11.20;10.20;;;;;;;28.50;45.17;94428.17;828226;71;29385;-78
2021/05/26 12:16:11;;;;;;;13.30;11.93;;;;;;;28.77;43.87;94407.19;828098;71;30226;-78
2021/05/26 12:31:18;;;;;;;12.63;11.50;;;;;;;28.75;43.61;94393.33;826016;71;31845;-76
2021/05/26 12:46:39;;;;;;;12.73;11.53;;;;;;;28.94;43.44;94376.45;828174;71;31777;-76
2021/05/26 13:01:12;;;;;;;13.47;12.03;;;;;;;28.47;44.06;94352.03;829328;71;29273;-76
2021/05/26 13:16:12;;;;;;;14.10;12.70;;;;;;;28.41;44.68;94342.07;819064;71;29848;-75
2021/05/26 13:31:09;;;;;;;14.83;13.53;;;;;;;27.92;46.63;94332.28;828272;71;29282;-75
2021/05/26 13:46:12;;;;;;;15.63;14.23;;;;;;;26.39;49.85;94319.66;828220;71;31280;-79
2021/05/26 14:01:14;;;;;;;15.40;14.00;;;;;;;26.23;51.03;94327.44;827243;71;31742;-77
2021/05/26 14:16:07;;;;;;;14.13;12.80;;;;;;;;;;827931;71;28673;-75
2021/05/26 14:31:17;;;;;;;13.60;12.20;;;;;;;25.27;53.74;94319.09;827568;71;32227;-76
2021/05/26 14:46:16;;;;;;;13.20;11.87;;;;;;;25.53;53.59;94296.40;833896;71;31784;-78
2021/05/26 15:16:14;;;;;;;12.53;11.53;;;;;;;25.28;56.18;94271.68;827439;71;31370;-77
2021/05/26 15:31:09;;;;;;;11.70;10.70;;;;;;;25.01;56.97;94258.48;828201;71;29833;-78
2021/05/26 15:46:16;;;;;;;12.97;10.90;;;;;;;24.46;57.97;94241.61;828029;71;30825;-77
2021/05/26 16:01:10;;;;;;;12.37;11.27;;;;;;;23.79;59.07;94251.06;828770;71;29326;-81
2021/05/26 16:16:16;;;;;;;61.87;55.10;;;;;;;24.04;60.09;94244.42;828083;71;31404;-78
2021/05/26 16:31:17;;;;;;;18.13;16.27;;;;;;;24.39;59.35;94251.77;826510;71;32766;-79
2021/05/26 16:46:18;;;;;;;15.10;13.53;;;;;;;24.92;60.02;94238.17;793505;74;32947;-78
2021/05/26 17:01:13;;;;;;;12.47;11.23;;;;;;;24.68;58.45;94241.06;828291;71;32890;-79
2021/05/26 17:16:16;;;;;;;14.83;13.53;;;;;;;24.85;61.97;94238.17;827330;71;32787;-77
2021/05/26 17:31:08;;;;;;;12.83;11.63;;;;;;;24.08;60.10;94243.09;834192;71;29813;-76
2021/05/26 17:46:14;;;;;;;11.70;10.60;;;;;;;23.62;59.79;94273.16;822034;71;30346;-75
2021/05/26 18:01:14;;;;;;;37.67;33.67;;;;;;;23.24;64.25;94276.05;834128;71;32708;-78
2021/05/26 18:16:14;;;;;;;15.40;13.93;;;;;;;22.59;64.11;94284.17;828600;71;32739;-76
2021/05/26 18:31:09;;;;;;;14.40;13.00;;;;;;;22.42;64.48;94280.18;828747;71;30274;-79
2021/05/26 18:46:16;;;;;;;18.77;16.83;;;;;;;21.21;75.63;94318.42;827905;71;32726;-77
2021/05/26 19:01:14;;;;;;;18.07;16.20;;;;;;;20.09;79.88;94370.97;828247;71;33060;-77
2021/05/26 19:16:09;;;;;;;19.50;14.87;;;;;;;19.88;83.09;94408.61;834119;71;29805;-76
2021/05/26 19:31:10;;;;;;;21.90;19.70;;;;;;;19.38;86.24;94353.72;833923;71;30353;-75
2021/05/26 19:46:08;;;;;;;26.07;23.40;;;;;;;19.13;87.22;94373.09;833992;71;30160;-74
2021/05/26 20:01:09;;;;;;;27.80;25.00;;;;;;;18.89;82.98;94352.01;828100;71;29798;-77
2021/05/26 20:16:10;;;;;;;28.70;25.77;;;;;;;18.47;86.10;94386.47;828286;71;30334;-77
2021/05/26 20:31:14;;;;;;;29.15;26.00;;;;;;;18.25;89.72;94394.42;821449;71;33119;-77
2021/05/26 20:46:10;;;;;;;32.25;28.85;;;;;;;18.22;94.83;94386.56;819272;71;30344;-78
2021/05/26 21:01:59;;;;;;;23.60;21.10;;;;;;;18.01;90.13;94381.45;834242;71;33264;-77
2021/05/26 21:16:08;;;;;;;20.97;18.90;;;;;;;18.05;87.66;94372.27;828236;71;29750;-76
2021/05/26 21:31:19;;;;;;;20.52;18.62;;;;;;;18.04;88.75;94349.45;827563;71;33168;-75
2021/05/26 21:46:15;;;;;;;19.98;18.07;;;;;;;17.93;87.64;94325.28;833861;71;32693;-77
2021/05/26 22:01:09;;;;;;;18.70;16.90;;;;;;;17.86;86.47;94289.80;828447;71;30286;-77
2021/05/26 22:16:09;;;;;;;18.40;16.60;;;;;;;17.67;88.00;94275.81;829029;71;29782;-77
2021/05/26 22:31:10;;;;;;;19.98;18.02;;;;;;;17.86;86.38;94268.57;828813;71;30931;-77
2021/05/26 22:46:25;;;;;;;17.80;16.15;;;;;;;18.54;84.53;94279.02;827431;71;32724;-78
2021/05/26 23:01:12;;;;;;;17.90;16.20;;;;;;;19.12;81.77;94276.35;828260;71;29809;-75
2021/05/26 23:16:09;;;;;;;19.07;17.17;;;;;;;19.46;79.23;94272.69;828244;71;30150;-77
2021/05/26 23:31:08;;;;;;;18.65;16.77;;;;;;;19.66;78.12;94274.80;828647;71;29712;-77
2021/05/26 23:46:09;;;;;;;17.82;16.02;;;;;;;19.76;77.20;94279.03;828216;71;30719;-77
